Huizhou, China
Current Conditions -  °F | °C
As of 1:00 AM on Friday 31 Oct 2014 (Local Time) from ZGSZ Reporting Station
Clear Clear  
Wind Chill: 77°   Ceiling: Unl
Heat Index: 79°   Visibility: 4mi
Dew Point: 68°   Wind: 7mph
Humidity: 74%   Direction: 100°E
Pressure: 29.97"   Gusts: NA
Location:  23.08°N, 114.4°E
Report Text: ZGSZ 301700Z 10003MPS 060V130 7000 NSC 25/20 Q1015 NOSIG
Loading
Personal Weather Stations






























Interactive Weather Map
Tropical Storm Tracking
New forecast layout! Learn more

10-Day Weather Forecast

Advertisements
Track Severe Weather on mobile